Meadow Creek, North Carolina
Current Conditions -  °F | °C
As of 5:55 PM on Friday 28 Nov 2014 (Local Time) from KTNB Reporting Station
Clear Clear  
Wind Chill: 26°   Ceiling: Unl
Heat Index: 31°   Visibility: 10mi
Dew Point: 20°   Wind: 5mph
Humidity: 65%   Direction: 270°W
Pressure: 30.21"   Gusts: NA
Location:  36.1935°N, 81.5276°W
Report Text: KTNB 282255Z AUTO 27004KT 10SM CLR M01/M07 A3021 RMK AO2 T10071066
Loading
Personal Weather Stations






























Interactive Weather Map New forecast layout! Learn more

10-Day Weather Forecast

Advertisements
Track Severe Weather on mobile